createdAt,value
2023-01-19T00:00:12.151Z,22.50
2023-01-19T00:03:15.952Z,24.70
2023-01-19T00:05:52.753Z,21.40
2023-01-19T00:08:26.067Z,23.50
2023-01-19T00:11:18.825Z,22.70
2023-01-19T00:13:51.969Z,22.30
2023-01-19T00:16:30.150Z,22.30
2023-01-19T00:19:13.646Z,23.70
2023-01-19T00:21:51.605Z,23.20
2023-01-19T00:24:23.878Z,21.90
2023-01-19T00:26:56.254Z,24.20
2023-01-19T00:29:33.603Z,23.20
2023-01-19T00:32:07.128Z,25.20
2023-01-19T00:34:42.749Z,26.50
2023-01-19T00:37:16.079Z,24.00
2023-01-19T00:39:49.134Z,25.40
2023-01-19T00:42:41.821Z,25.30
2023-01-19T00:45:16.675Z,24.80
2023-01-19T00:47:58.066Z,23.30
2023-01-19T00:50:38.153Z,20.90
2023-01-19T00:53:10.803Z,19.70
2023-01-19T00:55:43.229Z,21.60
2023-01-19T00:58:15.362Z,19.80
2023-01-19T01:00:47.477Z,19.80
2023-01-19T01:03:28.167Z,20.20
2023-01-19T01:06:09.999Z,20.50
2023-01-19T01:08:44.184Z,19.90
2023-01-19T01:11:17.684Z,19.80
2023-01-19T01:13:50.872Z,20.60
2023-01-19T01:16:25.893Z,20.40
2023-01-19T01:19:00.750Z,20.80
2023-01-19T01:21:34.689Z,19.20
2023-01-19T01:24:08.039Z,19.90
2023-01-19T01:26:48.210Z,20.00
2023-01-19T01:29:24.038Z,17.80
2023-01-19T01:32:01.404Z,20.10
2023-01-19T01:34:33.946Z,19.90
2023-01-19T01:37:09.983Z,21.70
2023-01-19T01:39:45.466Z,21.40
2023-01-19T01:42:31.525Z,20.90
2023-01-19T01:45:29.836Z,18.20
2023-01-19T01:48:07.559Z,19.50
2023-01-19T01:51:03.970Z,21.50
2023-01-19T01:53:38.602Z,21.90
2023-01-19T01:56:16.479Z,21.90
2023-01-19T01:58:51.905Z,19.30
2023-01-19T02:01:41.977Z,20.00
2023-01-19T02:04:17.586Z,19.10
2023-01-19T02:07:07.734Z,23.40
2023-01-19T02:09:59.119Z,23.80
2023-01-19T02:12:50.641Z,22.20
2023-01-19T02:15:28.045Z,22.00
2023-01-19T02:18:00.419Z,21.10
2023-01-19T02:21:00.836Z,20.60
2023-01-19T02:23:44.106Z,22.70
2023-01-19T02:26:23.450Z,24.00
2023-01-19T02:28:59.355Z,27.20
2023-01-19T02:31:33.955Z,32.10
2023-01-19T02:34:08.243Z,32.00
2023-01-19T02:36:52.141Z,23.80
2023-01-19T02:39:30.401Z,26.10
2023-01-19T02:42:09.102Z,22.00
2023-01-19T02:44:53.518Z,20.40
2023-01-19T02:47:28.848Z,19.90
2023-01-19T02:50:01.831Z,19.90
2023-01-19T02:52:34.207Z,21.80
2023-01-19T02:55:19.444Z,20.90
2023-01-19T02:58:00.904Z,19.60
2023-01-19T03:00:48.076Z,20.40
2023-01-19T03:03:32.039Z,18.80
2023-01-19T03:06:11.614Z,20.50
2023-01-19T03:08:53.255Z,18.50
2023-01-19T03:11:30.428Z,28.00
2023-01-19T03:14:13.509Z,27.60
2023-01-19T03:16:49.139Z,30.50
2023-01-19T03:19:28.372Z,28.00
2023-01-19T03:22:06.864Z,30.80
2023-01-19T03:24:43.393Z,26.30
2023-01-19T03:27:26.392Z,29.70
2023-01-19T03:30:02.941Z,29.70
2023-01-19T03:32:41.074Z,27.10
2023-01-19T03:35:17.661Z,24.70
2023-01-19T03:37:53.081Z,31.50
2023-01-19T03:40:28.996Z,32.20
2023-01-19T03:43:05.578Z,31.70
2023-01-19T03:45:41.926Z,29.00
2023-01-19T03:48:17.781Z,28.10
2023-01-19T03:50:50.519Z,28.80
2023-01-19T03:53:23.691Z,34.00
2023-01-19T03:55:55.906Z,30.30
2023-01-19T03:58:28.332Z,29.30
2023-01-19T04:01:00.942Z,28.80
2023-01-19T04:03:33.657Z,28.80
2023-01-19T04:06:07.732Z,31.40
2023-01-19T04:08:40.794Z,30.00
2023-01-19T04:11:15.355Z,27.90
2023-01-19T04:13:47.850Z,29.90
2023-01-19T04:16:21.345Z,29.60
2023-01-19T04:18:54.722Z,31.90
2023-01-19T04:23:57.838Z,31.20
2023-01-19T04:26:30.250Z,36.00
2023-01-19T04:29:05.693Z,36.30
2023-01-19T04:31:40.536Z,39.00
2023-01-19T04:34:13.039Z,40.50
2023-01-19T04:36:48.095Z,39.70
2023-01-19T04:39:40.678Z,35.90
2023-01-19T04:42:13.133Z,34.50
2023-01-19T04:45:05.959Z,38.70
2023-01-19T04:47:53.015Z,40.90
2023-01-19T04:50:25.452Z,39.90
2023-01-19T04:52:58.463Z,36.70
2023-01-19T04:55:33.923Z,30.70
2023-01-19T04:58:11.873Z,33.70
2023-01-19T05:00:55.525Z,31.30
2023-01-19T05:03:31.304Z,31.70
2023-01-19T05:06:20.520Z,29.90
2023-01-19T05:09:02.031Z,26.60
2023-01-19T05:14:13.822Z,22.90
2023-01-19T05:16:48.782Z,25.00
2023-01-19T05:19:23.846Z,24.80
2023-01-19T05:22:18.320Z,24.30
2023-01-19T05:24:50.582Z,29.00
2023-01-19T05:27:22.829Z,34.00
2023-01-19T05:29:55.160Z,35.70
2023-01-19T05:32:27.780Z,39.00
2023-01-19T05:35:00.219Z,35.20
2023-01-19T05:37:32.767Z,29.50
2023-01-19T05:40:05.627Z,28.70
2023-01-19T05:42:41.037Z,28.00
2023-01-19T05:45:16.578Z,27.20
2023-01-19T05:47:49.088Z,27.90
2023-01-19T05:50:21.395Z,25.90
2023-01-19T05:52:54.201Z,26.80
2023-01-19T05:55:28.854Z,28.30
2023-01-19T05:58:01.487Z,26.80
2023-01-19T06:00:36.164Z,28.60
2023-01-19T06:05:40.363Z,26.00
2023-01-19T06:08:12.774Z,28.90
2023-01-19T06:10:44.748Z,31.50
2023-01-19T06:13:17.487Z,39.00
2023-01-19T06:15:49.772Z,40.10
2023-01-19T06:20:58.662Z,32.10
2023-01-19T06:23:33.197Z,31.40
2023-01-19T06:26:06.375Z,29.10
2023-01-19T06:28:38.725Z,30.00
2023-01-19T06:31:11.210Z,33.80
2023-01-19T06:33:45.907Z,29.40
2023-01-19T06:36:18.312Z,27.70
2023-01-19T06:38:50.621Z,26.20
2023-01-19T06:41:23.127Z,23.90
2023-01-19T06:43:58.438Z,24.50
2023-01-19T06:46:30.890Z,22.30
2023-01-19T06:49:23.679Z,18.70
2023-01-19T06:51:59.306Z,16.30
2023-01-19T06:54:43.456Z,15.80
2023-01-19T06:57:20.929Z,16.80
2023-01-19T06:59:53.490Z,14.10
2023-01-19T07:02:28.545Z,14.40
2023-01-19T07:05:01.417Z,14.70
2023-01-19T07:07:33.768Z,12.10
2023-01-19T07:10:08.178Z,12.20
2023-01-19T07:12:40.855Z,9.50
2023-01-19T07:15:14.084Z,12.50
2023-01-19T07:17:46.797Z,13.10
2023-01-19T07:20:19.710Z,14.40
2023-01-19T07:22:59.024Z,18.10
2023-01-19T07:25:31.797Z,18.30
2023-01-19T07:28:09.385Z,13.40
2023-01-19T07:30:42.571Z,13.80
2023-01-19T07:33:17.846Z,13.10
2023-01-19T07:35:51.533Z,14.50
2023-01-19T07:38:24.081Z,17.10
2023-01-19T07:41:03.025Z,14.80
2023-01-19T07:43:38.179Z,22.30
2023-01-19T07:46:10.907Z,15.70
2023-01-19T07:48:47.548Z,13.20
2023-01-19T07:51:39.923Z,12.50
2023-01-19T07:54:14.792Z,11.50
2023-01-19T07:56:47.173Z,13.00
2023-01-19T07:59:19.757Z,12.10
2023-01-19T08:01:53.520Z,13.80
2023-01-19T08:04:26.255Z,12.70
2023-01-19T08:06:58.764Z,12.00
2023-01-19T08:09:30.914Z,12.60
2023-01-19T08:12:06.751Z,13.40
2023-01-19T08:14:39.370Z,12.80
2023-01-19T08:17:14.762Z,12.30
2023-01-19T08:19:47.088Z,13.20
2023-01-19T08:22:19.251Z,13.70
2023-01-19T08:24:51.850Z,14.50
2023-01-19T08:27:24.584Z,14.80
2023-01-19T08:29:59.583Z,14.80
2023-01-19T08:35:02.562Z,14.20
2023-01-19T08:37:35.070Z,14.70
2023-01-19T08:40:10.183Z,17.40
2023-01-19T08:42:42.756Z,14.60
2023-01-19T08:45:15.350Z,14.80
2023-01-19T08:47:47.963Z,15.80
2023-01-19T08:50:20.935Z,16.90
2023-01-19T08:52:53.468Z,19.20
2023-01-19T08:55:26.076Z,25.80
2023-01-19T08:58:00.107Z,21.90
2023-01-19T09:00:34.505Z,89.50
2023-01-19T09:03:12.383Z,114.30
2023-01-19T09:06:08.960Z,82.90
2023-01-19T09:08:41.367Z,117.60
2023-01-19T09:13:45.650Z,93.70
2023-01-19T09:16:18.447Z,93.50
2023-01-19T09:18:51.006Z,59.50
2023-01-19T09:23:54.760Z,55.40
2023-01-19T09:26:27.265Z,52.10
2023-01-19T09:29:08.778Z,39.50
2023-01-19T09:31:41.751Z,33.40
2023-01-19T09:34:14.028Z,30.70
2023-01-19T09:36:47.401Z,25.80
2023-01-19T09:39:20.138Z,19.60
2023-01-19T09:42:07.095Z,18.10
2023-01-19T09:44:40.541Z,26.80
2023-01-19T09:47:21.356Z,23.60
2023-01-19T09:50:00.220Z,50.20
2023-01-19T09:52:36.004Z,79.00
2023-01-19T09:55:18.950Z,59.40
2023-01-19T09:57:51.310Z,33.20
2023-01-19T10:00:27.662Z,23.60
2023-01-19T10:03:08.987Z,21.60
2023-01-19T10:05:45.828Z,18.30
2023-01-19T10:08:30.891Z,18.00
2023-01-19T10:11:03.475Z,17.50
2023-01-19T10:13:45.172Z,18.70
2023-01-19T10:16:32.120Z,18.20
2023-01-19T10:19:24.999Z,18.10
2023-01-19T10:21:59.923Z,19.00
2023-01-19T10:24:39.753Z,18.10
2023-01-19T10:27:25.507Z,16.40
2023-01-19T10:29:58.488Z,18.30
2023-01-19T10:32:34.103Z,18.30
2023-01-19T10:35:22.488Z,28.30
2023-01-19T10:37:58.093Z,24.30
2023-01-19T10:40:40.290Z,23.00
2023-01-19T10:43:38.071Z,18.80
2023-01-19T10:46:20.689Z,17.70
2023-01-19T10:48:55.329Z,17.90
2023-01-19T10:51:27.781Z,18.90
2023-01-19T10:54:03.356Z,19.10
2023-01-19T10:56:39.496Z,16.90
2023-01-19T10:59:33.969Z,16.40
2023-01-19T11:02:22.536Z,17.20
2023-01-19T11:04:57.273Z,15.10
2023-01-19T11:07:33.179Z,16.20
2023-01-19T11:10:25.923Z,15.70
2023-01-19T11:13:12.869Z,15.80
2023-01-19T11:15:50.091Z,14.70
2023-01-19T11:18:34.974Z,14.90
2023-01-19T11:21:09.410Z,17.00
2023-01-19T11:23:47.785Z,15.20
2023-01-19T11:26:28.974Z,13.30
2023-01-19T11:29:06.186Z,14.10
2023-01-19T11:32:13.444Z,18.50
2023-01-19T11:35:21.386Z,15.50
2023-01-19T11:38:08.080Z,12.60
2023-01-19T11:40:53.123Z,13.80
2023-01-19T11:43:43.369Z,18.00
2023-01-19T11:46:21.061Z,24.60
2023-01-19T11:49:01.917Z,19.70
2023-01-19T11:51:41.371Z,17.00
2023-01-19T11:54:23.877Z,16.20
2023-01-19T11:56:59.373Z,17.10
2023-01-19T11:59:31.895Z,17.00
2023-01-19T12:02:12.432Z,17.10
2023-01-19T12:04:48.164Z,16.30
2023-01-19T12:07:25.762Z,30.70
2023-01-19T12:10:15.274Z,16.80
2023-01-19T12:12:49.319Z,14.70
2023-01-19T12:15:37.433Z,15.90
2023-01-19T12:18:20.607Z,15.40
2023-01-19T12:20:55.828Z,15.00
2023-01-19T12:23:38.332Z,28.60
2023-01-19T12:26:34.466Z,18.10
2023-01-19T12:29:13.300Z,16.30
2023-01-19T12:31:45.697Z,15.90
2023-01-19T12:34:46.691Z,15.60
2023-01-19T12:37:41.687Z,16.60
2023-01-19T12:40:29.137Z,18.80
2023-01-19T12:43:04.395Z,17.80
2023-01-19T12:45:39.893Z,16.20
2023-01-19T12:48:27.640Z,14.70
2023-01-19T12:50:59.868Z,15.70
2023-01-19T12:53:37.629Z,19.60
2023-01-19T12:56:13.999Z,16.10
2023-01-19T12:58:51.115Z,17.50
2023-01-19T13:01:24.964Z,20.00
2023-01-19T13:04:07.377Z,17.60
2023-01-19T13:09:38.163Z,15.90
2023-01-19T13:12:23.220Z,17.20
2023-01-19T13:15:29.182Z,17.70
2023-01-19T13:18:03.568Z,18.60
2023-01-19T13:20:47.752Z,15.20
2023-01-19T13:23:23.747Z,18.50
2023-01-19T13:26:04.118Z,18.70
2023-01-19T13:28:43.630Z,17.80
2023-01-19T13:31:17.143Z,19.50
2023-01-19T13:33:54.414Z,17.10
2023-01-19T13:36:31.700Z,19.20
2023-01-19T13:39:08.470Z,18.60
2023-01-19T13:41:44.994Z,17.10
2023-01-19T13:44:19.922Z,15.80
2023-01-19T13:46:53.774Z,16.80
2023-01-19T13:49:31.606Z,17.50
2023-01-19T13:52:15.455Z,18.30
2023-01-19T13:55:00.540Z,18.60
2023-01-19T13:57:35.901Z,17.80
2023-01-19T14:00:18.865Z,17.80
2023-01-19T14:03:02.739Z,17.00
2023-01-19T14:05:38.503Z,17.90
2023-01-19T14:08:18.271Z,16.60
2023-01-19T14:11:03.237Z,17.40
2023-01-19T14:13:40.272Z,18.30
2023-01-19T14:16:37.411Z,19.60
2023-01-19T14:19:09.735Z,19.10
2023-01-19T14:24:20.324Z,20.10
2023-01-19T14:26:54.848Z,21.80
2023-01-19T14:29:29.034Z,19.90
2023-01-19T14:32:18.505Z,23.70
2023-01-19T14:35:12.484Z,20.50
2023-01-19T14:37:51.331Z,20.50
2023-01-19T14:40:26.831Z,22.30
2023-01-19T14:43:03.999Z,18.60
2023-01-19T14:45:39.373Z,18.20
2023-01-19T14:48:19.402Z,18.30
2023-01-19T14:51:03.684Z,16.80
2023-01-19T14:53:39.556Z,16.60
2023-01-19T14:56:12.056Z,16.20
2023-01-19T14:58:44.414Z,14.60
2023-01-19T15:03:50.565Z,16.90
2023-01-19T15:06:24.553Z,18.90
2023-01-19T15:08:57.126Z,20.60
2023-01-19T15:11:32.233Z,23.80
2023-01-19T15:14:05.319Z,21.60
2023-01-19T15:16:40.296Z,22.30
2023-01-19T15:19:16.666Z,22.20
2023-01-19T15:21:48.799Z,21.00
2023-01-19T15:24:23.451Z,21.50
2023-01-19T15:27:02.772Z,22.70
2023-01-19T15:29:37.667Z,23.70
2023-01-19T15:32:15.076Z,23.80
2023-01-19T15:34:52.682Z,24.30
2023-01-19T15:37:42.501Z,28.40
2023-01-19T15:40:16.701Z,24.50
2023-01-19T15:42:53.240Z,25.00
2023-01-19T15:45:51.582Z,23.10
2023-01-19T15:48:33.460Z,22.00
2023-01-19T15:51:13.845Z,28.70
2023-01-19T15:54:11.762Z,29.30
2023-01-19T15:56:50.969Z,32.90
2023-01-19T15:59:28.865Z,22.60
2023-01-19T16:02:12.776Z,23.10
2023-01-19T16:04:59.815Z,25.50
2023-01-19T16:07:40.489Z,23.60
2023-01-19T16:13:36.665Z,21.00
2023-01-19T16:16:16.396Z,22.90
2023-01-19T16:18:50.337Z,26.60
2023-01-19T16:21:27.607Z,25.80
2023-01-19T16:24:03.142Z,27.90
2023-01-19T16:26:43.165Z,32.90
2023-01-19T16:29:15.877Z,36.20
2023-01-19T16:31:48.412Z,29.80
2023-01-19T16:34:20.902Z,27.20
2023-01-19T16:36:53.926Z,26.00
2023-01-19T16:39:26.479Z,26.70
2023-01-19T16:42:01.912Z,28.70
2023-01-19T16:44:37.406Z,24.70
2023-01-19T16:47:09.831Z,25.40
2023-01-19T16:49:42.378Z,22.00
2023-01-19T16:52:14.752Z,21.90
2023-01-19T16:54:47.522Z,22.30
2023-01-19T16:57:20.004Z,20.40
2023-01-19T16:59:52.278Z,20.00
2023-01-19T17:02:24.844Z,28.90
2023-01-19T17:05:00.342Z,25.30
2023-01-19T17:07:36.316Z,26.20
2023-01-19T17:10:11.343Z,29.00
2023-01-19T17:12:44.084Z,29.40
2023-01-19T17:15:17.127Z,35.80
2023-01-19T17:17:50.242Z,36.00
2023-01-19T17:20:22.624Z,30.30
2023-01-19T17:22:56.129Z,38.70
2023-01-19T17:25:28.733Z,39.20
2023-01-19T17:28:02.933Z,37.00
2023-01-19T17:30:36.507Z,39.10
2023-01-19T17:33:09.648Z,43.90
2023-01-19T17:35:46.754Z,36.90
2023-01-19T17:38:19.374Z,43.10
2023-01-19T17:40:54.771Z,38.00
2023-01-19T17:43:27.509Z,39.60
2023-01-19T17:46:03.844Z,30.50
2023-01-19T17:48:39.372Z,27.50
2023-01-19T17:51:15.501Z,27.70
2023-01-19T17:53:50.795Z,29.70
2023-01-19T17:56:27.763Z,32.90
2023-01-19T17:59:00.703Z,34.00
2023-01-19T18:01:34.539Z,41.10
2023-01-19T18:04:10.553Z,41.70
2023-01-19T18:06:47.233Z,44.90
2023-01-19T18:09:19.716Z,40.40
2023-01-19T18:11:52.303Z,42.40
2023-01-19T18:14:27.542Z,42.30
2023-01-19T18:17:00.585Z,40.40
2023-01-19T18:19:33.504Z,40.10
2023-01-19T18:22:08.266Z,36.00
2023-01-19T18:24:43.842Z,43.60
2023-01-19T18:27:17.646Z,44.30
2023-01-19T18:30:01.139Z,38.70
2023-01-19T18:32:35.987Z,34.50
2023-01-19T18:35:10.300Z,33.50
2023-01-19T18:37:44.855Z,32.00
2023-01-19T18:40:17.825Z,31.50
2023-01-19T18:42:50.397Z,30.70
2023-01-19T18:45:23.000Z,27.60
2023-01-19T18:47:58.547Z,25.40
2023-01-19T18:50:31.629Z,26.40
2023-01-19T18:53:04.175Z,24.50
2023-01-19T18:55:36.844Z,23.10
2023-01-19T18:58:09.275Z,24.10
2023-01-19T19:03:12.341Z,23.50
2023-01-19T19:05:48.013Z,24.10
2023-01-19T19:08:20.612Z,26.40
2023-01-19T19:10:53.191Z,25.90
2023-01-19T19:13:25.662Z,30.10
2023-01-19T19:16:05.618Z,28.50
2023-01-19T19:18:50.143Z,26.70
2023-01-19T19:21:25.743Z,27.00
2023-01-19T19:24:01.061Z,24.80
2023-01-19T19:26:37.227Z,25.10
2023-01-19T19:29:09.510Z,24.70
2023-01-19T19:31:46.222Z,24.10
2023-01-19T19:34:18.617Z,20.70
2023-01-19T19:37:01.281Z,21.80
2023-01-19T19:39:41.090Z,20.50
2023-01-19T19:42:13.618Z,19.40
2023-01-19T19:44:46.379Z,20.90
2023-01-19T19:47:19.010Z,19.10
2023-01-19T19:49:51.610Z,20.30
2023-01-19T19:52:23.722Z,20.30
2023-01-19T19:54:56.072Z,20.30
2023-01-19T19:59:59.279Z,16.90
2023-01-19T20:05:17.909Z,16.90
2023-01-19T20:07:51.118Z,18.90
2023-01-19T20:10:25.115Z,34.90
2023-01-19T20:13:00.352Z,28.10
2023-01-19T20:15:39.126Z,23.20
2023-01-19T20:18:22.169Z,20.60
2023-01-19T20:21:00.516Z,19.60
2023-01-19T20:23:33.660Z,128.40
2023-01-19T20:26:09.252Z,95.50
2023-01-19T20:28:43.348Z,66.90
2023-01-19T20:31:19.782Z,74.90
2023-01-19T20:33:56.781Z,53.10
2023-01-19T20:36:41.873Z,28.70
2023-01-19T20:39:30.125Z,22.60
2023-01-19T20:42:09.907Z,21.30
2023-01-19T20:44:43.007Z,20.10
2023-01-19T20:47:15.944Z,23.00
2023-01-19T20:49:48.429Z,21.30
2023-01-19T20:52:24.079Z,18.90
2023-01-19T20:54:56.618Z,18.40
2023-01-19T20:57:29.158Z,20.20
2023-01-19T21:00:01.912Z,20.20
2023-01-19T21:02:34.559Z,22.00
2023-01-19T21:05:13.687Z,20.00
2023-01-19T21:07:51.425Z,18.80
2023-01-19T21:10:24.073Z,18.60
2023-01-19T21:12:59.560Z,17.30
2023-01-19T21:15:35.198Z,19.40
2023-01-19T21:18:16.250Z,17.20
2023-01-19T21:23:40.449Z,17.20
2023-01-19T21:28:53.627Z,17.50
2023-01-19T21:31:30.015Z,17.00
2023-01-19T21:34:02.799Z,20.60
2023-01-19T21:36:35.292Z,35.30
2023-01-19T21:39:08.288Z,25.90
2023-01-19T21:41:43.811Z,24.60
2023-01-19T21:44:16.446Z,21.80
2023-01-19T21:46:48.520Z,36.30
2023-01-19T21:49:21.822Z,27.50
2023-01-19T21:51:57.047Z,21.20
2023-01-19T21:54:31.973Z,20.60
2023-01-19T21:57:06.806Z,21.00
2023-01-19T22:02:12.979Z,18.80
2023-01-19T22:04:45.472Z,19.60
2023-01-19T22:07:20.400Z,19.90
2023-01-19T22:09:55.533Z,20.60
2023-01-19T22:12:27.847Z,21.00
2023-01-19T22:15:02.971Z,19.70
2023-01-19T22:17:37.956Z,19.10
2023-01-19T22:20:13.758Z,20.50
2023-01-19T22:22:48.782Z,20.50
2023-01-19T22:25:35.165Z,20.70
2023-01-19T22:30:49.724Z,19.60
2023-01-19T22:33:25.231Z,19.80
2023-01-19T22:38:29.074Z,18.80
2023-01-19T22:41:11.819Z,21.90
2023-01-19T22:43:43.946Z,23.00
2023-01-19T22:46:20.193Z,22.50
2023-01-19T22:48:53.205Z,23.40
2023-01-19T22:51:26.999Z,24.40
2023-01-19T22:54:19.303Z,22.20
2023-01-19T22:56:51.684Z,23.80
2023-01-19T22:59:26.571Z,23.70
2023-01-19T23:02:12.442Z,23.50
2023-01-19T23:04:49.572Z,22.90
2023-01-19T23:07:24.830Z,24.10
2023-01-19T23:09:56.983Z,25.10
2023-01-19T23:12:29.229Z,26.20
2023-01-19T23:15:04.673Z,25.20
2023-01-19T23:17:43.824Z,26.10
2023-01-19T23:20:17.055Z,25.30
2023-01-19T23:22:59.384Z,25.20
2023-01-19T23:25:35.959Z,24.40
2023-01-19T23:28:11.350Z,23.30
2023-01-19T23:30:43.652Z,23.90
2023-01-19T23:33:15.951Z,23.40
2023-01-19T23:35:48.456Z,23.40
2023-01-19T23:38:23.335Z,22.40
2023-01-19T23:43:49.840Z,21.80
2023-01-19T23:46:25.811Z,24.70
2023-01-19T23:48:58.333Z,25.20
2023-01-19T23:51:32.885Z,26.80
2023-01-19T23:54:08.260Z,25.60
2023-01-19T23:56:47.825Z,26.80
